Keiho Maru — JJ4010 — position and weather

sailwx.info

Track history (hours):
 
Tides and Currents Weather Stations Pressure Air Temp Water Temp Dewpoint Dewpoint Depression Visibility Wind Speed Wind Dir Waves Ship Positions

Keiho Maru

Last reported at 2017-Nov-14 23:29 UTC. Time now 2017-Nov-21 19:18 UTC.
Position N 34°39' E 135°29'.

Length 38 m; draft 3.6 m.

Type: Tug. MMSI: 431401501.

Date/timePositionNaut miles runAvg speedWind from/ knotsBaromVisibWave heightAir tempDewpointWater temp
2017-Nov-14 23:29N 34°39' E 135°29'0 0.1
2017-Nov-14 22:59N 34°39' E 135°29'2 3.8
2017-Nov-14 22:30N 34°37' E 135°27'5 9.5
2017-Nov-14 22:00N 34°40' E 135°22'611.5
2017-Nov-14 21:30N 34°41' E 135°15'3 5.2
2017-Nov-14 21:00N 34°41' E 135°12'0 0.0
2017-Nov-14 20:30N 34°41' E 135°12'0 0.0
2017-Nov-14 05:51N 34°41' E 135°12'1 1.9
2017-Nov-14 05:30N 34°40' E 135°11'0 0.0
2017-Nov-14 05:00N 34°40' E 135°11'0 0.9
2017-Nov-14 04:31N 34°40' E 135°12'3 6.3
2017-Nov-14 04:00N 34°37' E 135°11'0 0.1
2017-Nov-14 03:30N 34°37' E 135°11'0 0.4
2017-Nov-14 03:00N 34°37' E 135°11'0 0.2
2017-Nov-14 02:30N 34°37' E 135°11'0 0.3
2017-Nov-14 02:00N 34°37' E 135°11'0 0.3
2017-Nov-14 01:30N 34°37' E 135°11'1 1.4
2017-Nov-14 00:59N 34°37' E 135°11'3 7.2
2017-Nov-14 00:30N 34°41' E 135°12'0 0.0
2017-Nov-14 00:00N 34°41' E 135°12'0 0.0
2017-Nov-13 23:30N 34°41' E 135°12'0 0.0
2017-Nov-13 23:00N 34°41' E 135°12'0 0.0
2017-Nov-13 22:30N 34°41' E 135°12'0 0.0
2017-Nov-13 22:00N 34°41' E 135°12'0 0.0
2017-Nov-13 02:00N 34°41' E 135°12'0 0.0
2017-Nov-13 01:30N 34°41' E 135°12'0 0.0
2017-Nov-13 01:00N 34°41' E 135°12'0 0.0
2017-Nov-13 00:30N 34°41' E 135°12'0 0.0
2017-Nov-13 00:00N 34°41' E 135°12'0 0.0
2017-Nov-12 23:30N 34°41' E 135°12'3 6.3
2017-Nov-12 23:00N 34°42' E 135°15'1 3.0
2017-Nov-12 22:30N 34°41' E 135°17'0 0.8
2017-Nov-12 22:00N 34°41' E 135°18'1 1.7
2017-Nov-12 21:30N 34°41' E 135°18'510.3
2017-Nov-12 21:00N 34°40' E 135°12'0 0.1
2017-Nov-12 20:30N 34°41' E 135°12'0 0.0
2017-Nov-12 05:55N 34°41' E 135°12'0 0.0
2017-Nov-12 05:30N 34°41' E 135°12'0 0.0
2017-Nov-12 05:00N 34°41' E 135°12'0 0.0
2017-Nov-12 04:30N 34°41' E 135°12'0 0.0
2017-Nov-12 04:00N 34°41' E 135°12'0 0.0
2017-Nov-12 03:30N 34°41' E 135°12'0 0.0
2017-Nov-12 03:00N 34°41' E 135°12'1 1.8
2017-Nov-12 02:30N 34°41' E 135°13'3 6.8
2017-Nov-12 02:00N 34°41' E 135°17'0 0.6
2017-Nov-12 01:30N 34°41' E 135°17'1 2.5
2017-Nov-12 01:00N 34°40' E 135°18'4 8.4
2017-Nov-12 00:30N 34°41' E 135°13'1 1.7
2017-Nov-12 00:00N 34°41' E 135°12'0 0.0
2017-Nov-11 23:30N 34°41' E 135°12'0 0.0
2017-Nov-11 23:00N 34°41' E 135°12'0 0.0
2017-Nov-10 06:54N 34°41' E 135°12'0 0.0
2017-Nov-10 06:30N 34°41' E 135°12'0 0.0
2017-Nov-10 06:00N 34°41' E 135°12'0 0.0
2017-Nov-10 05:30N 34°41' E 135°12'0 0.0
2017-Nov-10 05:00N 34°41' E 135°12'0 0.0
2017-Nov-10 04:30N 34°41' E 135°12'0 0.0
2017-Nov-10 04:00N 34°41' E 135°12'0 0.0
2017-Nov-10 03:30N 34°41' E 135°12'0 0.0
2017-Nov-10 03:00N 34°41' E 135°12'0 0.0
2017-Nov-10 02:30N 34°41' E 135°12'0 0.0
2017-Nov-10 02:00N 34°41' E 135°12'0 0.0
2017-Nov-10 01:30N 34°41' E 135°12'0 0.0
2017-Nov-10 01:00N 34°41' E 135°12'0 0.0
2017-Nov-10 00:30N 34°41' E 135°12'3 6.0
2017-Nov-10 00:00N 34°42' E 135°15'1 2.4
2017-Nov-09 23:30N 34°41' E 135°14'2 3.6
2017-Nov-09 23:00N 34°41' E 135°12'0 0.0
2017-Nov-09 22:30N 34°41' E 135°12'0 0.0
2017-Nov-09 22:00N 34°41' E 135°12'0 0.0
2017-Nov-09 10:18N 34°41' E 135°12'1 4.2
2017-Nov-09 10:00N 34°41' E 135°14'3 5.8
2017-Nov-09 09:30N 34°42' E 135°17'1 2.3
2017-Nov-09 09:00N 34°41' E 135°17'0 0.4
2017-Nov-09 08:30N 34°41' E 135°17'0 0.0
2017-Nov-09 08:00N 34°41' E 135°17'0 0.0
2017-Nov-09 07:30N 34°41' E 135°17'0 0.0
2017-Nov-09 07:00N 34°41' E 135°17'0 0.0
2017-Nov-09 06:30N 34°41' E 135°17'0 0.4
2017-Nov-09 06:00N 34°41' E 135°17'2 3.6
2017-Nov-09 05:30N 34°40' E 135°15'2 4.5
2017-Nov-09 05:00N 34°41' E 135°13'3 6.9
2017-Nov-09 04:30N 34°39' E 135°16'611.1
2017-Nov-09 04:00N 34°35' E 135°20'3 6.5
2017-Nov-09 03:30N 34°34' E 135°24'0 0.1
2017-Nov-09 02:24N 34°34' E 135°24'2 4.8
2017-Nov-09 02:00N 34°34' E 135°22'511.2
2017-Nov-09 01:30N 34°38' E 135°17'3 6.7
2017-Nov-09 01:00N 34°40' E 135°14'0 0.0
2017-Nov-09 00:30N 34°40' E 135°14'0 0.0
2017-Nov-09 00:00N 34°40' E 135°14'0 0.0
2017-Nov-08 23:30N 34°40' E 135°14'0 0.4
2017-Nov-08 23:00N 34°40' E 135°14'2 3.4
2017-Nov-08 22:30N 34°39' E 135°16'0 1.0
2017-Nov-08 22:00N 34°39' E 135°16'3 6.2
2017-Nov-08 21:30N 34°41' E 135°14'1 2.4
2017-Nov-08 21:00N 34°41' E 135°12'0 0.0
2017-Nov-08 20:30N 34°41' E 135°12'  
2017-Nov-05 05:55N 34°41' E 135°12'0 1.2
2017-Nov-05 05:30N 34°41' E 135°13'611.0
2017-Nov-05 05:00N 34°40' E 135°19'4 6.9
2017-Nov-05 04:24N 34°39' E 135°24'0 0.2
2017-Nov-05 04:00N 34°39' E 135°24'1 2.2
2017-Nov-05 03:28N 34°39' E 135°25'2 3.4
2017-Nov-05 03:00N 34°38' E 135°24'2 3.7
2017-Nov-05 02:30N 34°39' E 135°22'4 8.1
2017-Nov-05 02:00N 34°41' E 135°17'4 7.7
2017-Nov-05 01:30N 34°41' E 135°12'0 0.8
2017-Nov-05 01:00N 34°41' E 135°12'0 0.0
2017-Nov-05 00:30N 34°41' E 135°12'0 0.0
2017-Nov-05 00:00N 34°41' E 135°12'0 0.0
2017-Nov-04 23:30N 34°41' E 135°12'  
Track history (hours):
 
Tides and Currents Weather Stations Pressure Air Temp Water Temp Dewpoint Dewpoint Depression Visibility Wind Speed Wind Dir Waves Ship Positions

Keiho Maru

Last reported at 2017-Nov-14 23:29 UTC. Time now 2017-Nov-21 19:18 UTC.
Position N 34°39' E 135°29'.

Length 38 m; draft 3.6 m.

Type: Tug. MMSI: 431401501.

Date/timePositionNaut miles runAvg speedWind from/ knotsBaromVisibWave heightAir tempDewpointWater temp
2017-Nov-14 23:29N 34°39' E 135°29'0 0.1
2017-Nov-14 22:59N 34°39' E 135°29'2 3.8
2017-Nov-14 22:30N 34°37' E 135°27'5 9.5
2017-Nov-14 22:00N 34°40' E 135°22'611.5
2017-Nov-14 21:30N 34°41' E 135°15'3 5.2
2017-Nov-14 21:00N 34°41' E 135°12'0 0.0
2017-Nov-14 20:30N 34°41' E 135°12'0 0.0
2017-Nov-14 05:51N 34°41' E 135°12'1 1.9
2017-Nov-14 05:30N 34°40' E 135°11'0 0.0
2017-Nov-14 05:00N 34°40' E 135°11'0 0.9
2017-Nov-14 04:31N 34°40' E 135°12'3 6.3
2017-Nov-14 04:00N 34°37' E 135°11'0 0.1
2017-Nov-14 03:30N 34°37' E 135°11'0 0.4
2017-Nov-14 03:00N 34°37' E 135°11'0 0.2
2017-Nov-14 02:30N 34°37' E 135°11'0 0.3
2017-Nov-14 02:00N 34°37' E 135°11'0 0.3
2017-Nov-14 01:30N 34°37' E 135°11'1 1.4
2017-Nov-14 00:59N 34°37' E 135°11'3 7.2
2017-Nov-14 00:30N 34°41' E 135°12'0 0.0
2017-Nov-14 00:00N 34°41' E 135°12'0 0.0
2017-Nov-13 23:30N 34°41' E 135°12'0 0.0
2017-Nov-13 23:00N 34°41' E 135°12'0 0.0
2017-Nov-13 22:30N 34°41' E 135°12'0 0.0
2017-Nov-13 22:00N 34°41' E 135°12'0 0.0
2017-Nov-13 02:00N 34°41' E 135°12'0 0.0
2017-Nov-13 01:30N 34°41' E 135°12'0 0.0
2017-Nov-13 01:00N 34°41' E 135°12'0 0.0
2017-Nov-13 00:30N 34°41' E 135°12'0 0.0
2017-Nov-13 00:00N 34°41' E 135°12'0 0.0
2017-Nov-12 23:30N 34°41' E 135°12'3 6.3
2017-Nov-12 23:00N 34°42' E 135°15'1 3.0
2017-Nov-12 22:30N 34°41' E 135°17'0 0.8
2017-Nov-12 22:00N 34°41' E 135°18'1 1.7
2017-Nov-12 21:30N 34°41' E 135°18'510.3
2017-Nov-12 21:00N 34°40' E 135°12'0 0.1
2017-Nov-12 20:30N 34°41' E 135°12'0 0.0
2017-Nov-12 05:55N 34°41' E 135°12'0 0.0
2017-Nov-12 05:30N 34°41' E 135°12'0 0.0
2017-Nov-12 05:00N 34°41' E 135°12'0 0.0
2017-Nov-12 04:30N 34°41' E 135°12'0 0.0
2017-Nov-12 04:00N 34°41' E 135°12'0 0.0
2017-Nov-12 03:30N 34°41' E 135°12'0 0.0
2017-Nov-12 03:00N 34°41' E 135°12'1 1.8
2017-Nov-12 02:30N 34°41' E 135°13'3 6.8
2017-Nov-12 02:00N 34°41' E 135°17'0 0.6
2017-Nov-12 01:30N 34°41' E 135°17'1 2.5
2017-Nov-12 01:00N 34°40' E 135°18'4 8.4
2017-Nov-12 00:30N 34°41' E 135°13'1 1.7
2017-Nov-12 00:00N 34°41' E 135°12'0 0.0
2017-Nov-11 23:30N 34°41' E 135°12'0 0.0
2017-Nov-11 23:00N 34°41' E 135°12'0 0.0
2017-Nov-10 06:54N 34°41' E 135°12'0 0.0
2017-Nov-10 06:30N 34°41' E 135°12'0 0.0
2017-Nov-10 06:00N 34°41' E 135°12'0 0.0
2017-Nov-10 05:30N 34°41' E 135°12'0 0.0
2017-Nov-10 05:00N 34°41' E 135°12'0 0.0
2017-Nov-10 04:30N 34°41' E 135°12'0 0.0
2017-Nov-10 04:00N 34°41' E 135°12'0 0.0
2017-Nov-10 03:30N 34°41' E 135°12'0 0.0
2017-Nov-10 03:00N 34°41' E 135°12'0 0.0
2017-Nov-10 02:30N 34°41' E 135°12'0 0.0
2017-Nov-10 02:00N 34°41' E 135°12'0 0.0
2017-Nov-10 01:30N 34°41' E 135°12'0 0.0
2017-Nov-10 01:00N 34°41' E 135°12'0 0.0
2017-Nov-10 00:30N 34°41' E 135°12'3 6.0
2017-Nov-10 00:00N 34°42' E 135°15'1 2.4
2017-Nov-09 23:30N 34°41' E 135°14'2 3.6
2017-Nov-09 23:00N 34°41' E 135°12'0 0.0
2017-Nov-09 22:30N 34°41' E 135°12'0 0.0
2017-Nov-09 22:00N 34°41' E 135°12'0 0.0
2017-Nov-09 10:18N 34°41' E 135°12'1 4.2
2017-Nov-09 10:00N 34°41' E 135°14'3 5.8
2017-Nov-09 09:30N 34°42' E 135°17'1 2.3
2017-Nov-09 09:00N 34°41' E 135°17'0 0.4
2017-Nov-09 08:30N 34°41' E 135°17'0 0.0
2017-Nov-09 08:00N 34°41' E 135°17'0 0.0
2017-Nov-09 07:30N 34°41' E 135°17'0 0.0
2017-Nov-09 07:00N 34°41' E 135°17'0 0.0
2017-Nov-09 06:30N 34°41' E 135°17'0 0.4
2017-Nov-09 06:00N 34°41' E 135°17'2 3.6
2017-Nov-09 05:30N 34°40' E 135°15'2 4.5
2017-Nov-09 05:00N 34°41' E 135°13'3 6.9
2017-Nov-09 04:30N 34°39' E 135°16'611.1
2017-Nov-09 04:00N 34°35' E 135°20'3 6.5
2017-Nov-09 03:30N 34°34' E 135°24'0 0.1
2017-Nov-09 02:24N 34°34' E 135°24'2 4.8
2017-Nov-09 02:00N 34°34' E 135°22'511.2
2017-Nov-09 01:30N 34°38' E 135°17'3 6.7
2017-Nov-09 01:00N 34°40' E 135°14'0 0.0
2017-Nov-09 00:30N 34°40' E 135°14'0 0.0
2017-Nov-09 00:00N 34°40' E 135°14'0 0.0
2017-Nov-08 23:30N 34°40' E 135°14'0 0.4
2017-Nov-08 23:00N 34°40' E 135°14'2 3.4
2017-Nov-08 22:30N 34°39' E 135°16'0 1.0
2017-Nov-08 22:00N 34°39' E 135°16'3 6.2
2017-Nov-08 21:30N 34°41' E 135°14'1 2.4
2017-Nov-08 21:00N 34°41' E 135°12'0 0.0
2017-Nov-08 20:30N 34°41' E 135°12'  
2017-Nov-05 05:55N 34°41' E 135°12'0 1.2
2017-Nov-05 05:30N 34°41' E 135°13'611.0
2017-Nov-05 05:00N 34°40' E 135°19'4 6.9
2017-Nov-05 04:24N 34°39' E 135°24'0 0.2
2017-Nov-05 04:00N 34°39' E 135°24'1 2.2
2017-Nov-05 03:28N 34°39' E 135°25'2 3.4
2017-Nov-05 03:00N 34°38' E 135°24'2 3.7
2017-Nov-05 02:30N 34°39' E 135°22'4 8.1
2017-Nov-05 02:00N 34°41' E 135°17'4 7.7
2017-Nov-05 01:30N 34°41' E 135°12'0 0.8
2017-Nov-05 01:00N 34°41' E 135°12'0 0.0
2017-Nov-05 00:30N 34°41' E 135°12'0 0.0
2017-Nov-05 00:00N 34°41' E 135°12'0 0.0
2017-Nov-04 23:30N 34°41' E 135°12'  

Dump ship's entire track history